Airfield :
LOGIN :

Register | Disclaimer

   EN    FR    IT 

 










Legend :    VFR   Marginal VFR   IFR   Intensive IFR   Very Intensive IFR
Visi :
Ceiling :
>= 8 km
>= 3000ft
5 to 8 km
1000 to 3000 ft
1500m to 5 km
500 to 1000 ft
800 to 1500m
200 to 500 ft
< 800m
< 200 ft
Symbols :   Thunderstorms  Fog  Heavy snow  Heavy precipitations  Wind > 20 kt
SIGMETs :     Misc.  Thunderstorms  Icing  Turbulence  Mountain Waves  Volcanic Ashes






- Airport Elevation : 28 ft
- IATA code : SOZ


LFKS - Solenzara

CURRENT METAR :
  • 280530Z AUTO 27006KT CAVOK 10/05 Q1018

EXPIRED METARs :
  • 280500Z AUTO 27005KT CAVOK 10/05 Q1018
  • 280430Z AUTO 27006KT 240V300 CAVOK 10/04 Q1018
  • 280400Z AUTO 27006KT 240V310 CAVOK 10/04 Q1018
  • 280330Z AUTO 27006KT CAVOK 09/04 Q1019
  • 280300Z AUTO 27007KT 240V300 CAVOK 09/04 Q1019

TAF TAF LFKS
Valid from the 27 at 11:00 until the 28 at 09:00 UTC


271035Z 2711/2809 03013KT CAVOK
TEMPO 2711/2717 03015G25KT



MET'MAP, your aeronautical weather chart ! - Copyright ORBIFLY December 2007 - Disclaimer

ORBIFLY MET'MAP TEAM :

Programming & Development : Alexandra Zaïnal
Original concept : Baudouin d'Aumeries
Technical & hardware support : Manuel Goepfert
Assistance : Marc-Olivier Méhu




SOURCES & CREDITS :

   NOAA